createdAt,value
2018-08-31T00:03:04.616Z,13.90
2018-08-31T00:05:45.204Z,13.90
2018-08-31T00:09:20.420Z,13.80
2018-08-31T00:11:58.687Z,13.80
2018-08-31T00:14:26.733Z,13.70
2018-08-31T00:16:54.777Z,13.70
2018-08-31T00:19:22.857Z,13.70
2018-08-31T00:21:50.909Z,13.70
2018-08-31T00:24:30.466Z,13.70
2018-08-31T00:27:10.074Z,13.80
2018-08-31T00:29:51.796Z,13.80
2018-08-31T00:34:34.870Z,13.80
2018-08-31T00:38:18.281Z,13.80
2018-08-31T00:41:12.729Z,13.70
2018-08-31T00:43:53.557Z,13.70
2018-08-31T00:46:21.627Z,13.70
2018-08-31T00:48:49.685Z,13.70
2018-08-31T00:51:17.742Z,13.70
2018-08-31T00:53:45.786Z,13.70
2018-08-31T00:56:13.845Z,13.70
2018-08-31T00:58:41.895Z,13.70
2018-08-31T01:01:09.973Z,13.60
2018-08-31T01:03:38.160Z,13.60
2018-08-31T01:06:06.249Z,13.60
2018-08-31T01:08:34.365Z,13.60
2018-08-31T01:11:02.449Z,13.50
2018-08-31T01:13:30.528Z,13.50
2018-08-31T01:15:58.730Z,13.60
2018-08-31T01:18:26.782Z,13.50
2018-08-31T01:20:55.102Z,13.50
2018-08-31T01:23:23.289Z,13.50
2018-08-31T01:25:51.329Z,13.60
2018-08-31T01:28:19.398Z,13.70
2018-08-31T01:30:47.449Z,13.50
2018-08-31T01:33:15.547Z,13.50
2018-08-31T01:35:43.545Z,13.50
2018-08-31T01:38:11.619Z,13.40
2018-08-31T01:40:39.777Z,13.50
2018-08-31T01:43:07.834Z,13.40
2018-08-31T01:45:35.881Z,13.50
2018-08-31T01:48:03.935Z,13.50
2018-08-31T01:50:32.011Z,13.50
2018-08-31T01:53:00.066Z,13.50
2018-08-31T01:55:31.634Z,13.40
2018-08-31T01:58:00.729Z,13.40
2018-08-31T02:00:28.906Z,13.40
2018-08-31T02:02:56.948Z,13.30
2018-08-31T02:05:25.066Z,13.40
2018-08-31T02:07:53.133Z,13.30
2018-08-31T02:10:21.191Z,13.30
2018-08-31T02:12:49.263Z,13.40
2018-08-31T02:15:17.325Z,13.30
2018-08-31T02:17:45.369Z,13.30
2018-08-31T02:20:13.418Z,13.30
2018-08-31T02:22:41.474Z,13.30
2018-08-31T02:25:09.557Z,13.20
2018-08-31T02:27:37.645Z,13.30
2018-08-31T02:30:05.855Z,13.20
2018-08-31T02:32:34.011Z,13.20
2018-08-31T02:35:02.052Z,13.20
2018-08-31T02:37:30.088Z,13.20
2018-08-31T02:39:58.143Z,13.20
2018-08-31T02:42:26.189Z,13.20
2018-08-31T02:44:54.244Z,13.20
2018-08-31T02:47:22.288Z,13.20
2018-08-31T02:49:50.354Z,13.20
2018-08-31T02:52:18.393Z,13.20
2018-08-31T02:54:46.509Z,13.10
2018-08-31T02:57:14.601Z,13.10
2018-08-31T02:59:42.658Z,13.10
2018-08-31T03:02:10.693Z,13.10
2018-08-31T03:04:38.770Z,13.10
2018-08-31T03:07:06.819Z,13.10
2018-08-31T03:09:34.875Z,13.10
2018-08-31T03:12:02.946Z,13.10
2018-08-31T03:14:31.007Z,13.10
2018-08-31T03:16:59.072Z,13.10
2018-08-31T03:19:27.126Z,13.10
2018-08-31T03:21:55.172Z,13.00
2018-08-31T03:24:23.233Z,13.00
2018-08-31T03:26:51.309Z,13.10
2018-08-31T03:29:19.402Z,13.10
2018-08-31T03:31:47.438Z,13.10
2018-08-31T03:34:15.513Z,13.00
2018-08-31T03:36:43.552Z,13.00
2018-08-31T03:39:11.911Z,13.10
2018-08-31T03:41:39.946Z,13.10
2018-08-31T03:44:08.251Z,13.10
2018-08-31T03:46:36.326Z,13.00
2018-08-31T03:49:04.382Z,13.00
2018-08-31T03:51:33.567Z,13.00
2018-08-31T03:54:01.625Z,13.00
2018-08-31T03:56:29.698Z,13.00
2018-08-31T03:58:57.745Z,13.00
2018-08-31T04:01:25.820Z,13.00
2018-08-31T04:03:53.936Z,13.00
2018-08-31T04:06:22.013Z,13.00
2018-08-31T04:08:50.066Z,12.90
2018-08-31T04:11:18.134Z,12.90
2018-08-31T04:13:46.204Z,12.90
2018-08-31T04:16:14.296Z,13.00
2018-08-31T04:18:42.370Z,12.90
2018-08-31T04:21:10.437Z,13.00
2018-08-31T04:23:38.514Z,13.00
2018-08-31T04:26:06.670Z,12.90
2018-08-31T04:28:34.731Z,12.90
2018-08-31T04:31:02.791Z,13.00
2018-08-31T04:33:30.868Z,13.00
2018-08-31T04:35:58.931Z,13.00
2018-08-31T04:38:27.013Z,13.00
2018-08-31T04:40:55.898Z,13.00
2018-08-31T04:43:23.972Z,13.00
2018-08-31T04:45:52.061Z,12.90
2018-08-31T04:48:20.093Z,13.00
2018-08-31T04:50:48.158Z,13.00
2018-08-31T04:53:16.221Z,13.00
2018-08-31T04:55:44.434Z,13.00
2018-08-31T04:58:12.682Z,12.90
2018-08-31T05:00:40.753Z,12.90
2018-08-31T05:03:08.830Z,12.90
2018-08-31T05:05:36.913Z,12.80
2018-08-31T05:08:04.976Z,12.90
2018-08-31T05:10:33.029Z,13.00
2018-08-31T05:13:01.077Z,12.90
2018-08-31T05:15:29.129Z,13.00
2018-08-31T05:17:57.170Z,13.10
2018-08-31T05:20:25.233Z,13.10
2018-08-31T05:22:53.290Z,13.10
2018-08-31T05:25:21.351Z,13.10
2018-08-31T05:27:49.404Z,13.10
2018-08-31T05:30:17.459Z,13.10
2018-08-31T05:32:45.512Z,13.20
2018-08-31T05:35:13.573Z,13.20
2018-08-31T05:37:41.634Z,13.20
2018-08-31T05:40:09.667Z,13.30
2018-08-31T05:42:37.742Z,13.30
2018-08-31T05:45:05.846Z,13.20
2018-08-31T05:47:33.925Z,13.20
2018-08-31T05:50:01.971Z,13.20
2018-08-31T05:52:30.044Z,13.20
2018-08-31T05:54:58.097Z,13.30
2018-08-31T05:57:26.173Z,13.50
2018-08-31T05:59:54.259Z,13.40
2018-08-31T06:02:22.294Z,13.40
2018-08-31T06:04:50.362Z,13.40
2018-08-31T06:07:20.811Z,13.50
2018-08-31T06:09:48.850Z,13.60
2018-08-31T06:12:16.946Z,13.70
2018-08-31T06:14:45.173Z,13.70
2018-08-31T06:17:13.224Z,13.80
2018-08-31T06:19:41.263Z,13.80
2018-08-31T06:22:09.373Z,13.90
2018-08-31T06:24:37.434Z,13.90
2018-08-31T06:27:05.564Z,14.00
2018-08-31T06:29:33.622Z,14.00
2018-08-31T06:32:01.686Z,14.10
2018-08-31T06:34:29.770Z,14.20
2018-08-31T06:36:57.845Z,14.30
2018-08-31T06:39:26.034Z,14.40
2018-08-31T06:41:54.217Z,14.40
2018-08-31T06:44:22.252Z,14.60
2018-08-31T06:46:50.325Z,14.60
2018-08-31T06:49:18.377Z,14.60
2018-08-31T06:51:46.670Z,14.70
2018-08-31T06:54:14.725Z,14.80
2018-08-31T06:56:42.796Z,14.90
2018-08-31T06:59:10.866Z,14.90
2018-08-31T07:01:38.941Z,14.90
2018-08-31T07:04:07.026Z,15.00
2018-08-31T07:06:35.082Z,15.10
2018-08-31T07:09:03.958Z,15.20
2018-08-31T07:11:32.005Z,15.20
2018-08-31T07:14:00.058Z,15.30
2018-08-31T07:16:28.107Z,15.20
2018-08-31T07:18:56.241Z,15.30
2018-08-31T07:21:24.322Z,15.30
2018-08-31T07:23:52.402Z,15.30
2018-08-31T07:26:20.502Z,15.30
2018-08-31T07:28:48.534Z,15.50
2018-08-31T07:31:16.630Z,15.40
2018-08-31T07:33:44.702Z,15.50
2018-08-31T07:36:12.831Z,15.60
2018-08-31T07:38:40.842Z,15.70
2018-08-31T07:41:08.886Z,15.70
2018-08-31T07:43:36.957Z,15.80
2018-08-31T07:46:05.003Z,15.90
2018-08-31T07:48:33.078Z,15.80
2018-08-31T07:51:01.154Z,16.00
2018-08-31T07:53:29.213Z,16.00
2018-08-31T07:55:57.454Z,16.10
2018-08-31T07:58:25.497Z,16.30
2018-08-31T08:00:54.410Z,16.00
2018-08-31T08:03:22.462Z,16.10
2018-08-31T08:05:50.521Z,16.20
2018-08-31T08:08:18.594Z,16.30
2018-08-31T08:10:46.649Z,16.40
2018-08-31T08:13:15.527Z,16.40
2018-08-31T08:15:43.598Z,16.50
2018-08-31T08:18:11.781Z,16.30
2018-08-31T08:20:39.839Z,16.40
2018-08-31T08:23:07.905Z,16.50
2018-08-31T08:25:35.970Z,16.50
2018-08-31T08:28:04.081Z,16.30
2018-08-31T08:30:32.125Z,16.30
2018-08-31T08:33:00.176Z,16.50
2018-08-31T08:35:28.213Z,16.70
2018-08-31T08:37:56.269Z,16.60
2018-08-31T08:40:24.313Z,16.70
2018-08-31T08:42:52.402Z,16.90
2018-08-31T08:45:20.763Z,17.00
2018-08-31T08:47:48.817Z,17.20
2018-08-31T08:50:16.870Z,17.20
2018-08-31T08:52:44.909Z,17.50
2018-08-31T08:55:13.370Z,17.40
2018-08-31T08:57:41.426Z,17.30
2018-08-31T09:00:09.655Z,17.10
2018-08-31T09:02:37.721Z,17.10
2018-08-31T09:05:05.828Z,17.20
2018-08-31T09:07:33.869Z,17.20
2018-08-31T09:10:01.906Z,17.40
2018-08-31T09:12:29.962Z,17.20
2018-08-31T09:14:58.017Z,17.00
2018-08-31T09:17:26.071Z,17.10
2018-08-31T09:19:54.129Z,17.20
2018-08-31T09:22:22.165Z,17.10
2018-08-31T09:24:50.226Z,17.20
2018-08-31T09:27:18.278Z,17.30
2018-08-31T09:29:46.320Z,17.50
2018-08-31T09:32:19.773Z,17.50
2018-08-31T09:34:51.352Z,17.40
2018-08-31T09:37:19.807Z,17.20
2018-08-31T09:39:48.564Z,17.20
2018-08-31T09:42:16.992Z,17.20
2018-08-31T09:44:45.078Z,17.10
2018-08-31T09:47:13.549Z,17.00
2018-08-31T09:49:42.071Z,16.90
2018-08-31T09:52:10.433Z,16.90
2018-08-31T09:54:38.481Z,17.10
2018-08-31T09:57:06.649Z,17.40
2018-08-31T09:59:34.697Z,17.60
2018-08-31T10:02:04.337Z,17.70
2018-08-31T10:04:32.499Z,17.80
2018-08-31T10:07:00.553Z,17.80
2018-08-31T10:09:29.037Z,18.20
2018-08-31T10:11:57.101Z,18.30
2018-08-31T10:14:25.290Z,18.20
2018-08-31T10:16:55.738Z,17.80
2018-08-31T10:19:23.791Z,17.60
2018-08-31T10:21:51.833Z,17.80
2018-08-31T10:24:19.906Z,17.90
2018-08-31T10:26:47.942Z,17.70
2018-08-31T10:29:15.989Z,17.70
2018-08-31T10:31:44.088Z,17.80
2018-08-31T10:34:12.539Z,18.00
2018-08-31T10:36:40.745Z,18.10
2018-08-31T10:39:10.826Z,18.10
2018-08-31T10:41:38.915Z,18.00
2018-08-31T10:44:07.167Z,17.90
2018-08-31T10:46:35.597Z,17.90
2018-08-31T10:49:03.888Z,18.00
2018-08-31T10:51:31.985Z,18.30
2018-08-31T10:54:00.078Z,18.70
2018-08-31T10:56:28.165Z,18.80
2018-08-31T10:58:56.281Z,18.60
2018-08-31T11:01:24.615Z,18.40
2018-08-31T11:03:53.365Z,18.50
2018-08-31T11:06:22.195Z,18.50
2018-08-31T11:08:50.292Z,18.40
2018-08-31T11:11:18.342Z,18.50
2018-08-31T11:13:46.413Z,18.50
2018-08-31T11:16:14.838Z,18.70
2018-08-31T11:18:43.025Z,18.70
2018-08-31T11:21:11.051Z,18.60
2018-08-31T11:23:39.124Z,18.50
2018-08-31T11:26:07.189Z,18.50
2018-08-31T11:28:35.261Z,18.40
2018-08-31T11:31:03.413Z,18.50
2018-08-31T11:33:31.474Z,18.70
2018-08-31T11:36:00.037Z,18.80
2018-08-31T11:38:28.103Z,18.80
2018-08-31T11:40:56.184Z,18.70
2018-08-31T11:43:24.251Z,18.60
2018-08-31T11:45:52.341Z,18.60
2018-08-31T11:48:20.519Z,18.50
2018-08-31T11:50:48.689Z,18.50
2018-08-31T11:53:16.747Z,18.60
2018-08-31T11:55:44.803Z,18.80
2018-08-31T11:58:12.873Z,18.70
2018-08-31T12:00:40.957Z,18.80
2018-08-31T12:03:09.002Z,19.00
2018-08-31T12:05:37.070Z,19.20
2018-08-31T12:08:05.921Z,19.40
2018-08-31T12:10:33.978Z,19.30
2018-08-31T12:13:02.032Z,19.30
2018-08-31T12:15:30.093Z,19.30
2018-08-31T12:17:58.116Z,19.20
2018-08-31T12:20:26.170Z,19.20
2018-08-31T12:22:54.276Z,19.20
2018-08-31T12:25:22.309Z,19.30
2018-08-31T12:27:50.361Z,19.40
2018-08-31T12:30:18.420Z,19.50
2018-08-31T12:32:46.543Z,19.40
2018-08-31T12:35:15.114Z,19.30
2018-08-31T12:37:43.161Z,19.10
2018-08-31T12:40:11.259Z,19.00
2018-08-31T12:42:39.291Z,19.00
2018-08-31T12:45:07.549Z,18.90
2018-08-31T12:47:35.634Z,18.90
2018-08-31T12:50:03.864Z,19.00
2018-08-31T12:52:31.918Z,19.10
2018-08-31T12:55:00.128Z,19.10
2018-08-31T12:57:28.195Z,19.10
2018-08-31T13:00:01.266Z,19.00
2018-08-31T13:02:30.806Z,19.00
2018-08-31T13:04:59.128Z,19.10
2018-08-31T13:07:27.407Z,19.10
2018-08-31T13:09:55.749Z,19.10
2018-08-31T13:12:23.905Z,18.90
2018-08-31T13:14:52.190Z,18.80
2018-08-31T13:17:20.294Z,18.70
2018-08-31T13:19:48.664Z,18.50
2018-08-31T13:22:16.808Z,18.50
2018-08-31T13:24:45.177Z,18.50
2018-08-31T13:27:13.238Z,18.30
2018-08-31T13:29:41.298Z,18.40
2018-08-31T13:32:09.354Z,18.60
2018-08-31T13:34:37.429Z,18.70
2018-08-31T13:37:05.642Z,18.60
2018-08-31T13:39:33.707Z,18.70
2018-08-31T13:42:01.785Z,18.80
2018-08-31T13:44:29.849Z,18.90
2018-08-31T13:46:57.937Z,18.90
2018-08-31T13:49:25.967Z,18.80
2018-08-31T13:51:54.073Z,19.00
2018-08-31T13:54:22.122Z,19.00
2018-08-31T13:56:50.193Z,19.00
2018-08-31T13:59:18.254Z,19.00
2018-08-31T14:01:46.315Z,19.10
2018-08-31T14:04:15.741Z,19.00
2018-08-31T14:06:43.824Z,19.00
2018-08-31T14:09:11.878Z,19.00
2018-08-31T14:11:39.942Z,19.00
2018-08-31T14:14:08.042Z,18.90
2018-08-31T14:16:36.836Z,18.80
2018-08-31T14:19:06.554Z,18.80
2018-08-31T14:21:35.135Z,18.80
2018-08-31T14:24:03.202Z,18.80
2018-08-31T14:26:31.253Z,18.80
2018-08-31T14:28:59.302Z,18.80
2018-08-31T14:31:27.360Z,18.90
2018-08-31T14:33:55.412Z,18.90
2018-08-31T14:36:23.512Z,18.90
2018-08-31T14:38:51.557Z,18.90
2018-08-31T14:41:19.782Z,18.90
2018-08-31T14:43:47.890Z,18.80
2018-08-31T14:46:15.883Z,18.80
2018-08-31T14:48:43.942Z,18.70
2018-08-31T14:51:12.010Z,18.80
2018-08-31T14:53:40.076Z,18.80
2018-08-31T14:56:08.337Z,18.80
2018-08-31T14:58:36.396Z,18.80
2018-08-31T15:01:04.579Z,18.90
2018-08-31T15:03:32.623Z,19.00
2018-08-31T15:06:00.741Z,18.90
2018-08-31T15:08:28.722Z,19.10
2018-08-31T15:10:56.765Z,19.00
2018-08-31T15:13:25.214Z,19.00
2018-08-31T15:15:53.251Z,19.10
2018-08-31T15:18:21.302Z,19.10
2018-08-31T15:20:49.338Z,19.10
2018-08-31T15:23:17.414Z,19.10
2018-08-31T15:25:45.540Z,19.10
2018-08-31T15:28:13.746Z,19.00
2018-08-31T15:30:41.807Z,19.10
2018-08-31T15:33:09.903Z,19.10
2018-08-31T15:35:37.961Z,19.10
2018-08-31T15:38:06.182Z,19.10
2018-08-31T15:40:35.350Z,19.10
2018-08-31T15:43:03.522Z,19.10
2018-08-31T15:45:31.565Z,19.00
2018-08-31T15:47:59.614Z,19.10
2018-08-31T15:50:27.684Z,19.00
2018-08-31T15:52:55.773Z,18.90
2018-08-31T15:55:23.799Z,18.90
2018-08-31T15:57:51.971Z,18.80
2018-08-31T16:00:20.037Z,18.80
2018-08-31T16:02:48.114Z,18.80
2018-08-31T16:05:16.153Z,18.80
2018-08-31T16:07:44.268Z,18.80
2018-08-31T16:10:12.290Z,18.80
2018-08-31T16:12:40.390Z,18.70
2018-08-31T16:15:08.431Z,18.70
2018-08-31T16:17:36.489Z,18.80
2018-08-31T16:20:04.662Z,18.80
2018-08-31T16:22:33.438Z,18.80
2018-08-31T16:25:01.548Z,18.70
2018-08-31T16:27:29.587Z,18.80
2018-08-31T16:29:57.662Z,18.80
2018-08-31T16:32:25.718Z,18.80
2018-08-31T16:34:53.780Z,18.90
2018-08-31T16:37:22.050Z,18.70
2018-08-31T16:39:50.346Z,18.80
2018-08-31T16:42:18.526Z,18.70
2018-08-31T16:44:46.598Z,18.60
2018-08-31T16:47:14.704Z,18.60
2018-08-31T16:49:42.755Z,18.60
2018-08-31T16:52:10.799Z,18.50
2018-08-31T16:54:38.873Z,18.40
2018-08-31T16:57:06.968Z,18.40
2018-08-31T16:59:35.447Z,18.50
2018-08-31T17:02:03.726Z,18.50
2018-08-31T17:04:31.793Z,18.50
2018-08-31T17:06:59.861Z,18.50
2018-08-31T17:09:27.933Z,18.50
2018-08-31T17:11:55.973Z,18.30
2018-08-31T17:14:24.158Z,18.30
2018-08-31T17:16:52.235Z,18.20
2018-08-31T17:19:20.294Z,18.20
2018-08-31T17:21:48.365Z,18.10
2018-08-31T17:24:16.437Z,18.10
2018-08-31T17:26:50.251Z,18.10
2018-08-31T17:29:24.414Z,18.10
2018-08-31T17:31:57.815Z,18.00
2018-08-31T17:34:31.185Z,18.10
2018-08-31T17:37:04.655Z,18.10
2018-08-31T17:39:32.712Z,17.90
2018-08-31T17:42:00.774Z,18.00
2018-08-31T17:44:28.946Z,18.00
2018-08-31T17:46:57.018Z,18.10
2018-08-31T17:49:25.947Z,18.00
2018-08-31T17:51:54.003Z,17.90
2018-08-31T17:54:22.059Z,17.70
2018-08-31T17:56:50.131Z,17.60
2018-08-31T17:59:18.223Z,17.50
2018-08-31T18:01:46.294Z,17.50
2018-08-31T18:04:14.368Z,17.50
2018-08-31T18:06:42.413Z,17.50
2018-08-31T18:09:10.519Z,17.50
2018-08-31T18:11:38.665Z,17.40
2018-08-31T18:14:06.870Z,17.40
2018-08-31T18:16:35.141Z,17.30
2018-08-31T18:19:03.102Z,17.30
2018-08-31T18:21:31.165Z,17.20
2018-08-31T18:23:59.218Z,17.20
2018-08-31T18:26:27.302Z,17.20
2018-08-31T18:28:55.695Z,17.20
2018-08-31T18:31:23.769Z,17.00
2018-08-31T18:33:51.826Z,17.00
2018-08-31T18:36:19.893Z,16.90
2018-08-31T18:38:47.968Z,16.90
2018-08-31T18:41:16.037Z,16.80
2018-08-31T18:43:44.089Z,16.90
2018-08-31T18:46:12.206Z,16.90
2018-08-31T18:48:40.255Z,16.90
2018-08-31T18:51:08.337Z,16.90
2018-08-31T18:53:36.446Z,16.90
2018-08-31T18:56:04.636Z,17.00
2018-08-31T18:58:32.943Z,16.90
2018-08-31T19:01:01.038Z,16.90
2018-08-31T19:03:29.247Z,16.90
2018-08-31T19:05:57.430Z,16.90
2018-08-31T19:08:25.496Z,16.90
2018-08-31T19:10:53.549Z,16.90
2018-08-31T19:13:21.657Z,16.80
2018-08-31T19:15:49.752Z,16.80
2018-08-31T19:18:17.819Z,16.70
2018-08-31T19:20:45.870Z,16.70
2018-08-31T19:23:14.157Z,16.70
2018-08-31T19:25:42.257Z,16.70
2018-08-31T19:28:10.377Z,16.70
2018-08-31T19:30:38.462Z,16.70
2018-08-31T19:33:06.578Z,16.70
2018-08-31T19:35:34.688Z,16.60
2018-08-31T19:38:02.790Z,16.60
2018-08-31T19:40:30.864Z,16.50
2018-08-31T19:42:58.980Z,16.60
2018-08-31T19:45:27.063Z,16.60
2018-08-31T19:47:55.174Z,16.50
2018-08-31T19:50:23.341Z,16.40
2018-08-31T19:52:51.406Z,16.30
2018-08-31T19:55:19.509Z,16.30
2018-08-31T19:57:47.593Z,16.40
2018-08-31T20:00:15.657Z,16.30
2018-08-31T20:02:43.785Z,16.30
2018-08-31T20:05:11.841Z,16.20
2018-08-31T20:07:39.943Z,16.20
2018-08-31T20:10:08.051Z,16.20
2018-08-31T20:12:36.235Z,16.20
2018-08-31T20:15:04.288Z,16.30
2018-08-31T20:17:32.353Z,16.10
2018-08-31T20:20:01.202Z,16.00
2018-08-31T20:22:29.289Z,16.00
2018-08-31T20:24:57.942Z,16.00
2018-08-31T20:27:26.032Z,16.00
2018-08-31T20:30:00.782Z,16.00
2018-08-31T20:32:29.086Z,16.00
2018-08-31T20:34:57.356Z,16.10
2018-08-31T20:37:25.420Z,16.10
2018-08-31T20:39:53.486Z,16.00
2018-08-31T20:42:21.582Z,16.00
2018-08-31T20:44:49.657Z,16.00
2018-08-31T20:47:18.822Z,15.90
2018-08-31T20:49:46.875Z,15.90
2018-08-31T20:52:14.961Z,15.90
2018-08-31T20:54:43.079Z,15.80
2018-08-31T20:57:12.209Z,15.90
2018-08-31T20:59:40.260Z,15.80
2018-08-31T21:02:08.343Z,15.90
2018-08-31T21:04:36.462Z,15.80
2018-08-31T21:07:04.638Z,15.80
2018-08-31T21:09:32.695Z,15.80
2018-08-31T21:12:00.807Z,15.70
2018-08-31T21:14:29.137Z,15.70
2018-08-31T21:16:57.187Z,15.60
2018-08-31T21:19:25.246Z,15.70
2018-08-31T21:21:53.330Z,15.70
2018-08-31T21:24:21.408Z,15.70
2018-08-31T21:26:49.503Z,15.70
2018-08-31T21:29:17.825Z,15.70
2018-08-31T21:31:47.009Z,15.70
2018-08-31T21:34:15.155Z,15.70
2018-08-31T21:36:43.218Z,15.70
2018-08-31T21:39:11.337Z,15.70
2018-08-31T21:41:39.647Z,15.70
2018-08-31T21:44:07.756Z,15.70
2018-08-31T21:46:35.892Z,15.60
2018-08-31T21:49:03.966Z,15.60
2018-08-31T21:51:32.027Z,15.60
2018-08-31T21:54:00.206Z,15.70
2018-08-31T21:56:28.274Z,15.70
2018-08-31T21:58:56.332Z,15.70
2018-08-31T22:01:29.736Z,15.60
2018-08-31T22:03:57.814Z,15.50
2018-08-31T22:06:25.880Z,15.50
2018-08-31T22:08:53.978Z,15.50
2018-08-31T22:11:22.026Z,15.50
2018-08-31T22:13:50.086Z,15.50
2018-08-31T22:16:18.743Z,15.50
2018-08-31T22:18:46.836Z,15.50
2018-08-31T22:21:14.881Z,15.50
2018-08-31T22:23:42.944Z,15.50
2018-08-31T22:26:11.406Z,15.50
2018-08-31T22:28:39.486Z,15.50
2018-08-31T22:31:07.547Z,15.50
2018-08-31T22:33:35.604Z,15.50
2018-08-31T22:36:04.025Z,15.40
2018-08-31T22:38:32.078Z,15.40
2018-08-31T22:41:00.122Z,15.30
2018-08-31T22:43:33.830Z,15.30
2018-08-31T22:46:02.105Z,15.30
2018-08-31T22:48:30.173Z,15.30
2018-08-31T22:50:58.225Z,15.30
2018-08-31T22:53:26.321Z,15.20
2018-08-31T22:55:54.378Z,15.20
2018-08-31T22:58:22.458Z,15.20
2018-08-31T23:00:50.531Z,15.10
2018-08-31T23:03:18.605Z,15.10
2018-08-31T23:05:46.667Z,15.10
2018-08-31T23:08:14.756Z,15.20
2018-08-31T23:10:42.806Z,15.20
2018-08-31T23:13:10.863Z,15.20
2018-08-31T23:15:38.909Z,15.20
2018-08-31T23:18:06.967Z,15.20
2018-08-31T23:20:35.061Z,15.00
2018-08-31T23:23:08.511Z,14.90
2018-08-31T23:25:41.886Z,14.90
2018-08-31T23:28:09.945Z,14.90
2018-08-31T23:30:38.030Z,14.80
2018-08-31T23:33:06.097Z,14.90
2018-08-31T23:35:34.144Z,14.90
2018-08-31T23:38:02.206Z,14.90
2018-08-31T23:40:30.569Z,14.80
2018-08-31T23:42:58.647Z,14.80
2018-08-31T23:45:26.695Z,14.80
2018-08-31T23:47:54.741Z,14.80
2018-08-31T23:50:22.857Z,14.80
2018-08-31T23:52:50.978Z,14.90
2018-08-31T23:55:19.154Z,14.80
2018-08-31T23:57:47.217Z,14.80
